Terminal Aerodrome Forecast
Issued by NWS

Home | Current Version | Previous Version | Text Only | Print | Product List | Glossary On
Versions: 1 2 3 4 5 6 7 8 9 10 11 12 13 14 15 16 17 18 19 20 21 22 23 24 25
000
FTUS45 KSLC 241731
TAFBCE
TAF
KBCE 241731Z 2418/2518 16012G22KT P6SM SCT080 SCT120
     FM241900 20012G20KT P6SM VCSH SCT080 BKN110
     FM250200 26006KT P6SM FEW080 BKN120=

USA.gov is the U.S. government's official web portal to all federal, state and local government web resources and services.